sensor_id;sensor_type;location;lat;lon;timestamp;P1;durP1;ratioP1;P2;durP2;ratioP2
73107;SDS011;61559;50.476;15.588;2024-02-15T00:04:37;27.90;;;11.70;;
73107;SDS011;61559;50.476;15.588;2024-02-15T00:07:09;30.60;;;13.10;;
73107;SDS011;61559;50.476;15.588;2024-02-15T00:12:09;26.30;;;12.30;;
73107;SDS011;61559;50.476;15.588;2024-02-15T00:14:41;25.60;;;11.10;;
73107;SDS011;61559;50.476;15.588;2024-02-15T00:17:12;25.50;;;11.80;;
73107;SDS011;61559;50.476;15.588;2024-02-15T00:22:13;21.30;;;11.00;;
73107;SDS011;61559;50.476;15.588;2024-02-15T00:24:44;19.60;;;10.10;;
73107;SDS011;61559;50.476;15.588;2024-02-15T00:27:17;15.40;;;7.70;;
73107;SDS011;61559;50.476;15.588;2024-02-15T00:29:48;14.90;;;8.30;;
73107;SDS011;61559;50.476;15.588;2024-02-15T00:32:19;14.40;;;7.60;;
73107;SDS011;61559;50.476;15.588;2024-02-15T00:34:50;17.00;;;8.80;;
73107;SDS011;61559;50.476;15.588;2024-02-15T00:37:24;19.40;;;9.90;;
73107;SDS011;61559;50.476;15.588;2024-02-15T00:39:55;20.60;;;9.70;;
73107;SDS011;61559;50.476;15.588;2024-02-15T00:42:27;17.80;;;9.00;;
73107;SDS011;61559;50.476;15.588;2024-02-15T00:44:59;16.90;;;8.70;;
73107;SDS011;61559;50.476;15.588;2024-02-15T00:47:32;19.40;;;9.60;;
73107;SDS011;61559;50.476;15.588;2024-02-15T00:50:04;16.90;;;9.20;;
73107;SDS011;61559;50.476;15.588;2024-02-15T00:52:36;15.10;;;8.30;;
73107;SDS011;61559;50.476;15.588;2024-02-15T00:55:08;15.60;;;8.20;;
73107;SDS011;61559;50.476;15.588;2024-02-15T00:57:39;14.00;;;7.30;;
73107;SDS011;61559;50.476;15.588;2024-02-15T01:02:41;11.90;;;7.00;;
73107;SDS011;61559;50.476;15.588;2024-02-15T01:07:43;13.00;;;6.70;;
73107;SDS011;61559;50.476;15.588;2024-02-15T01:10:17;15.40;;;7.40;;
73107;SDS011;61559;50.476;15.588;2024-02-15T01:12:48;12.40;;;7.10;;
73107;SDS011;61559;50.476;15.588;2024-02-15T01:15:19;13.10;;;7.10;;
73107;SDS011;61559;50.476;15.588;2024-02-15T01:17:50;15.90;;;7.10;;
73107;SDS011;61559;50.476;15.588;2024-02-15T01:20:22;12.80;;;7.20;;
73107;SDS011;61559;50.476;15.588;2024-02-15T01:22:53;29.30;;;11.30;;
73107;SDS011;61559;50.476;15.588;2024-02-15T01:25:26;25.10;;;10.60;;
73107;SDS011;61559;50.476;15.588;2024-02-15T01:27:58;16.50;;;8.80;;
73107;SDS011;61559;50.476;15.588;2024-02-15T01:30:31;14.50;;;7.30;;
73107;SDS011;61559;50.476;15.588;2024-02-15T01:33:02;14.60;;;7.90;;
73107;SDS011;61559;50.476;15.588;2024-02-15T01:35:34;14.00;;;8.30;;
73107;SDS011;61559;50.476;15.588;2024-02-15T01:38:06;18.10;;;8.60;;
73107;SDS011;61559;50.476;15.588;2024-02-15T01:43:07;13.90;;;8.80;;
73107;SDS011;61559;50.476;15.588;2024-02-15T01:45:38;16.80;;;8.00;;
73107;SDS011;61559;50.476;15.588;2024-02-15T01:50:40;12.70;;;6.40;;
73107;SDS011;61559;50.476;15.588;2024-02-15T01:53:11;11.50;;;6.60;;
73107;SDS011;61559;50.476;15.588;2024-02-15T01:55:42;14.50;;;6.80;;
73107;SDS011;61559;50.476;15.588;2024-02-15T01:58:14;14.90;;;7.40;;
73107;SDS011;61559;50.476;15.588;2024-02-15T02:00:45;14.20;;;7.50;;
73107;SDS011;61559;50.476;15.588;2024-02-15T02:03:17;17.40;;;9.40;;
73107;SDS011;61559;50.476;15.588;2024-02-15T02:05:50;18.40;;;9.90;;
73107;SDS011;61559;50.476;15.588;2024-02-15T02:08:21;11.10;;;6.60;;
73107;SDS011;61559;50.476;15.588;2024-02-15T02:13:22;14.10;;;7.60;;
73107;SDS011;61559;50.476;15.588;2024-02-15T02:15:56;17.00;;;8.00;;
73107;SDS011;61559;50.476;15.588;2024-02-15T02:18:29;14.10;;;8.40;;
73107;SDS011;61559;50.476;15.588;2024-02-15T02:21:00;13.50;;;8.30;;
73107;SDS011;61559;50.476;15.588;2024-02-15T02:23:33;14.50;;;7.50;;
73107;SDS011;61559;50.476;15.588;2024-02-15T02:28:34;11.60;;;7.00;;
73107;SDS011;61559;50.476;15.588;2024-02-15T02:33:35;12.10;;;6.30;;
73107;SDS011;61559;50.476;15.588;2024-02-15T02:38:38;12.10;;;6.10;;
73107;SDS011;61559;50.476;15.588;2024-02-15T02:41:09;11.80;;;6.40;;
73107;SDS011;61559;50.476;15.588;2024-02-15T02:43:41;13.80;;;7.10;;
73107;SDS011;61559;50.476;15.588;2024-02-15T02:46:12;11.90;;;6.90;;
73107;SDS011;61559;50.476;15.588;2024-02-15T02:48:43;10.90;;;6.00;;
73107;SDS011;61559;50.476;15.588;2024-02-15T02:51:15;11.90;;;6.80;;
73107;SDS011;61559;50.476;15.588;2024-02-15T02:53:48;15.10;;;8.20;;
73107;SDS011;61559;50.476;15.588;2024-02-15T02:58:48;12.80;;;7.10;;
73107;SDS011;61559;50.476;15.588;2024-02-15T03:01:21;13.80;;;7.70;;
73107;SDS011;61559;50.476;15.588;2024-02-15T03:03:55;14.30;;;7.50;;
73107;SDS011;61559;50.476;15.588;2024-02-15T03:06:27;13.90;;;7.50;;
73107;SDS011;61559;50.476;15.588;2024-02-15T03:08:59;12.60;;;7.40;;
73107;SDS011;61559;50.476;15.588;2024-02-15T03:11:35;13.80;;;8.10;;
73107;SDS011;61559;50.476;15.588;2024-02-15T03:14:07;14.40;;;8.60;;
73107;SDS011;61559;50.476;15.588;2024-02-15T03:16:39;14.40;;;7.70;;
73107;SDS011;61559;50.476;15.588;2024-02-15T03:19:11;12.20;;;7.00;;
73107;SDS011;61559;50.476;15.588;2024-02-15T03:21:42;12.50;;;6.80;;
73107;SDS011;61559;50.476;15.588;2024-02-15T03:24:15;11.70;;;6.80;;
73107;SDS011;61559;50.476;15.588;2024-02-15T03:26:47;11.60;;;6.40;;
73107;SDS011;61559;50.476;15.588;2024-02-15T03:29:18;12.00;;;7.00;;
73107;SDS011;61559;50.476;15.588;2024-02-15T03:31:49;12.30;;;6.70;;
73107;SDS011;61559;50.476;15.588;2024-02-15T03:34:23;11.70;;;6.90;;
73107;SDS011;61559;50.476;15.588;2024-02-15T03:36:54;12.20;;;7.60;;
73107;SDS011;61559;50.476;15.588;2024-02-15T03:39:25;14.50;;;7.90;;
73107;SDS011;61559;50.476;15.588;2024-02-15T03:44:27;13.30;;;7.40;;
73107;SDS011;61559;50.476;15.588;2024-02-15T03:46:59;14.90;;;7.10;;
73107;SDS011;61559;50.476;15.588;2024-02-15T03:54:30;12.90;;;7.10;;
73107;SDS011;61559;50.476;15.588;2024-02-15T03:57:01;14.80;;;7.60;;
73107;SDS011;61559;50.476;15.588;2024-02-15T03:59:34;13.60;;;7.80;;
73107;SDS011;61559;50.476;15.588;2024-02-15T04:02:06;14.80;;;7.60;;
73107;SDS011;61559;50.476;15.588;2024-02-15T04:04:43;14.60;;;7.10;;
73107;SDS011;61559;50.476;15.588;2024-02-15T04:07:15;13.30;;;7.70;;
73107;SDS011;61559;50.476;15.588;2024-02-15T04:09:46;13.70;;;8.00;;
73107;SDS011;61559;50.476;15.588;2024-02-15T04:12:18;17.20;;;9.20;;
73107;SDS011;61559;50.476;15.588;2024-02-15T04:14:49;19.90;;;10.30;;
73107;SDS011;61559;50.476;15.588;2024-02-15T04:19:50;23.30;;;11.10;;
73107;SDS011;61559;50.476;15.588;2024-02-15T04:22:22;20.00;;;9.70;;
73107;SDS011;61559;50.476;15.588;2024-02-15T04:24:53;14.00;;;8.20;;
73107;SDS011;61559;50.476;15.588;2024-02-15T04:27:24;14.00;;;7.80;;
73107;SDS011;61559;50.476;15.588;2024-02-15T04:29:55;15.50;;;8.20;;
73107;SDS011;61559;50.476;15.588;2024-02-15T04:32:30;12.30;;;7.70;;
73107;SDS011;61559;50.476;15.588;2024-02-15T04:35:03;15.40;;;8.00;;
73107;SDS011;61559;50.476;15.588;2024-02-15T04:37:37;11.70;;;6.90;;
73107;SDS011;61559;50.476;15.588;2024-02-15T04:40:09;14.30;;;7.60;;
73107;SDS011;61559;50.476;15.588;2024-02-15T04:42:42;13.60;;;7.00;;
73107;SDS011;61559;50.476;15.588;2024-02-15T04:45:15;11.70;;;6.50;;
73107;SDS011;61559;50.476;15.588;2024-02-15T04:47:49;10.50;;;6.50;;
73107;SDS011;61559;50.476;15.588;2024-02-15T04:50:22;13.70;;;7.20;;
73107;SDS011;61559;50.476;15.588;2024-02-15T04:52:54;11.70;;;7.10;;
73107;SDS011;61559;50.476;15.588;2024-02-15T04:55:25;10.60;;;6.80;;
73107;SDS011;61559;50.476;15.588;2024-02-15T04:57:59;11.00;;;6.80;;
73107;SDS011;61559;50.476;15.588;2024-02-15T05:00:32;15.60;;;8.10;;
73107;SDS011;61559;50.476;15.588;2024-02-15T05:03:05;16.80;;;9.20;;
73107;SDS011;61559;50.476;15.588;2024-02-15T05:05:36;19.30;;;8.70;;
73107;SDS011;61559;50.476;15.588;2024-02-15T05:08:08;16.10;;;9.20;;
73107;SDS011;61559;50.476;15.588;2024-02-15T05:10:39;12.30;;;7.90;;
73107;SDS011;61559;50.476;15.588;2024-02-15T05:13:10;18.50;;;9.50;;
73107;SDS011;61559;50.476;15.588;2024-02-15T05:15:42;21.40;;;10.10;;
73107;SDS011;61559;50.476;15.588;2024-02-15T05:18:13;17.30;;;9.70;;
73107;SDS011;61559;50.476;15.588;2024-02-15T05:20:45;20.00;;;9.70;;
73107;SDS011;61559;50.476;15.588;2024-02-15T05:23:16;19.50;;;9.20;;
73107;SDS011;61559;50.476;15.588;2024-02-15T05:25:48;20.20;;;8.70;;
73107;SDS011;61559;50.476;15.588;2024-02-15T05:28:19;17.00;;;7.90;;
73107;SDS011;61559;50.476;15.588;2024-02-15T05:33:42;17.80;;;8.30;;
73107;SDS011;61559;50.476;15.588;2024-02-15T05:36:17;70.60;;;27.30;;
73107;SDS011;61559;50.476;15.588;2024-02-15T05:38:49;36.00;;;15.50;;
73107;SDS011;61559;50.476;15.588;2024-02-15T05:41:22;19.70;;;9.70;;
73107;SDS011;61559;50.476;15.588;2024-02-15T05:43:53;20.20;;;9.60;;
73107;SDS011;61559;50.476;15.588;2024-02-15T05:46:26;16.60;;;9.80;;
73107;SDS011;61559;50.476;15.588;2024-02-15T05:48:57;15.60;;;9.10;;
73107;SDS011;61559;50.476;15.588;2024-02-15T05:51:30;16.00;;;8.50;;
73107;SDS011;61559;50.476;15.588;2024-02-15T05:54:02;12.10;;;7.70;;
73107;SDS011;61559;50.476;15.588;2024-02-15T05:56:33;18.60;;;8.50;;
73107;SDS011;61559;50.476;15.588;2024-02-15T05:59:04;15.30;;;8.30;;
73107;SDS011;61559;50.476;15.588;2024-02-15T06:01:39;13.00;;;8.10;;
73107;SDS011;61559;50.476;15.588;2024-02-15T06:04:11;15.40;;;7.60;;
73107;SDS011;61559;50.476;15.588;2024-02-15T06:06:42;17.00;;;9.20;;
73107;SDS011;61559;50.476;15.588;2024-02-15T06:09:17;13.40;;;7.90;;
73107;SDS011;61559;50.476;15.588;2024-02-15T06:11:50;15.00;;;8.20;;
73107;SDS011;61559;50.476;15.588;2024-02-15T06:14:23;14.50;;;7.70;;
73107;SDS011;61559;50.476;15.588;2024-02-15T06:16:55;13.50;;;6.90;;
73107;SDS011;61559;50.476;15.588;2024-02-15T06:19:26;12.20;;;7.00;;
73107;SDS011;61559;50.476;15.588;2024-02-15T06:24:27;13.80;;;6.70;;
73107;SDS011;61559;50.476;15.588;2024-02-15T06:26:58;25.60;;;12.50;;
73107;SDS011;61559;50.476;15.588;2024-02-15T06:29:30;24.10;;;12.60;;
73107;SDS011;61559;50.476;15.588;2024-02-15T06:32:18;30.30;;;14.80;;
73107;SDS011;61559;50.476;15.588;2024-02-15T06:35:07;40.00;;;17.00;;
73107;SDS011;61559;50.476;15.588;2024-02-15T06:37:56;36.10;;;16.30;;
73107;SDS011;61559;50.476;15.588;2024-02-15T06:40:45;22.60;;;11.70;;
73107;SDS011;61559;50.476;15.588;2024-02-15T06:43:16;17.60;;;9.50;;
73107;SDS011;61559;50.476;15.588;2024-02-15T06:45:47;16.40;;;9.50;;
73107;SDS011;61559;50.476;15.588;2024-02-15T06:48:19;16.10;;;9.40;;
73107;SDS011;61559;50.476;15.588;2024-02-15T06:50:50;18.30;;;9.90;;
73107;SDS011;61559;50.476;15.588;2024-02-15T06:53:22;50.30;;;22.10;;
73107;SDS011;61559;50.476;15.588;2024-02-15T06:55:53;27.30;;;13.00;;
73107;SDS011;61559;50.476;15.588;2024-02-15T06:58:24;17.80;;;10.70;;
73107;SDS011;61559;50.476;15.588;2024-02-15T14:23:56;48.20;;;24.90;;
73107;SDS011;61559;50.476;15.588;2024-02-15T14:26:32;54.10;;;27.50;;
73107;SDS011;61559;50.476;15.588;2024-02-15T14:29:03;31.70;;;16.30;;
73107;SDS011;61559;50.476;15.588;2024-02-15T14:31:34;31.50;;;14.10;;
73107;SDS011;61559;50.476;15.588;2024-02-15T14:34:23;29.20;;;13.80;;
73107;SDS011;61559;50.476;15.588;2024-02-15T14:36:54;28.20;;;13.80;;
73107;SDS011;61559;50.476;15.588;2024-02-15T14:39:29;27.40;;;13.50;;
73107;SDS011;61559;50.476;15.588;2024-02-15T14:42:02;30.40;;;15.60;;
73107;SDS011;61559;50.476;15.588;2024-02-15T14:44:46;26.60;;;13.20;;
73107;SDS011;61559;50.476;15.588;2024-02-15T14:47:18;23.90;;;12.70;;
73107;SDS011;61559;50.476;15.588;2024-02-15T14:49:50;26.30;;;12.50;;
73107;SDS011;61559;50.476;15.588;2024-02-15T14:52:21;25.80;;;12.50;;
73107;SDS011;61559;50.476;15.588;2024-02-15T14:54:52;28.30;;;13.30;;
73107;SDS011;61559;50.476;15.588;2024-02-15T14:57:25;30.20;;;14.60;;
73107;SDS011;61559;50.476;15.588;2024-02-15T14:59:57;29.20;;;13.50;;
73107;SDS011;61559;50.476;15.588;2024-02-15T15:02:35;26.00;;;12.90;;
73107;SDS011;61559;50.476;15.588;2024-02-15T15:05:07;26.90;;;13.20;;
73107;SDS011;61559;50.476;15.588;2024-02-15T15:07:56;26.40;;;13.00;;
73107;SDS011;61559;50.476;15.588;2024-02-15T15:10:46;25.80;;;12.40;;
73107;SDS011;61559;50.476;15.588;2024-02-15T15:13:35;26.90;;;12.70;;
73107;SDS011;61559;50.476;15.588;2024-02-15T15:16:08;33.40;;;19.30;;
73107;SDS011;61559;50.476;15.588;2024-02-15T15:18:43;27.40;;;15.00;;
73107;SDS011;61559;50.476;15.588;2024-02-15T15:21:16;32.10;;;14.00;;
73107;SDS011;61559;50.476;15.588;2024-02-15T15:23:49;27.00;;;14.50;;
73107;SDS011;61559;50.476;15.588;2024-02-15T15:26:21;32.30;;;15.60;;
73107;SDS011;61559;50.476;15.588;2024-02-15T15:28:53;77.60;;;41.40;;
73107;SDS011;61559;50.476;15.588;2024-02-15T15:31:25;36.10;;;18.80;;
73107;SDS011;61559;50.476;15.588;2024-02-15T15:33:58;47.70;;;27.30;;
73107;SDS011;61559;50.476;15.588;2024-02-15T15:36:30;40.00;;;22.20;;
73107;SDS011;61559;50.476;15.588;2024-02-15T15:39:01;38.60;;;21.60;;
73107;SDS011;61559;50.476;15.588;2024-02-15T15:41:37;36.10;;;19.90;;
73107;SDS011;61559;50.476;15.588;2024-02-15T15:44:09;26.20;;;15.60;;
73107;SDS011;61559;50.476;15.588;2024-02-15T15:46:40;35.00;;;18.80;;
73107;SDS011;61559;50.476;15.588;2024-02-15T15:49:11;33.00;;;17.60;;
73107;SDS011;61559;50.476;15.588;2024-02-15T15:51:42;48.20;;;24.20;;
73107;SDS011;61559;50.476;15.588;2024-02-15T15:54:15;36.90;;;19.20;;
73107;SDS011;61559;50.476;15.588;2024-02-15T15:56:48;36.20;;;20.10;;
73107;SDS011;61559;50.476;15.588;2024-02-15T15:59:19;42.20;;;22.50;;
73107;SDS011;61559;50.476;15.588;2024-02-15T16:01:50;42.80;;;23.50;;
73107;SDS011;61559;50.476;15.588;2024-02-15T16:04:22;42.40;;;20.70;;
73107;SDS011;61559;50.476;15.588;2024-02-15T16:06:53;39.50;;;21.30;;
73107;SDS011;61559;50.476;15.588;2024-02-15T16:09:25;43.00;;;23.60;;
73107;SDS011;61559;50.476;15.588;2024-02-15T16:11:56;35.20;;;18.20;;
73107;SDS011;61559;50.476;15.588;2024-02-15T16:14:28;50.70;;;29.10;;
73107;SDS011;61559;50.476;15.588;2024-02-15T16:17:00;200.00;;;114.20;;
73107;SDS011;61559;50.476;15.588;2024-02-15T16:19:32;52.90;;;29.00;;
73107;SDS011;61559;50.476;15.588;2024-02-15T16:22:05;49.70;;;25.50;;
73107;SDS011;61559;50.476;15.588;2024-02-15T16:24:37;50.90;;;25.10;;
73107;SDS011;61559;50.476;15.588;2024-02-15T16:27:08;51.80;;;24.90;;
73107;SDS011;61559;50.476;15.588;2024-02-15T16:29:40;50.60;;;27.10;;
73107;SDS011;61559;50.476;15.588;2024-02-15T16:32:11;46.30;;;23.70;;
73107;SDS011;61559;50.476;15.588;2024-02-15T16:34:42;47.60;;;23.00;;
73107;SDS011;61559;50.476;15.588;2024-02-15T16:37:14;44.70;;;23.00;;
73107;SDS011;61559;50.476;15.588;2024-02-15T16:39:46;52.70;;;25.90;;
73107;SDS011;61559;50.476;15.588;2024-02-15T16:42:17;53.90;;;26.10;;
73107;SDS011;61559;50.476;15.588;2024-02-15T16:44:50;55.10;;;26.40;;
73107;SDS011;61559;50.476;15.588;2024-02-15T16:47:22;46.90;;;23.80;;
73107;SDS011;61559;50.476;15.588;2024-02-15T16:49:53;43.60;;;22.60;;
73107;SDS011;61559;50.476;15.588;2024-02-15T16:52:25;53.80;;;27.30;;
73107;SDS011;61559;50.476;15.588;2024-02-15T16:54:57;40.70;;;22.20;;
73107;SDS011;61559;50.476;15.588;2024-02-15T16:57:29;43.10;;;22.10;;
73107;SDS011;61559;50.476;15.588;2024-02-15T17:00:01;47.40;;;24.70;;
73107;SDS011;61559;50.476;15.588;2024-02-15T17:02:35;59.70;;;30.20;;
73107;SDS011;61559;50.476;15.588;2024-02-15T17:05:07;54.00;;;28.70;;
73107;SDS011;61559;50.476;15.588;2024-02-15T17:07:39;59.60;;;29.10;;
73107;SDS011;61559;50.476;15.588;2024-02-15T17:10:11;52.10;;;25.20;;
73107;SDS011;61559;50.476;15.588;2024-02-15T17:12:43;44.60;;;24.20;;
73107;SDS011;61559;50.476;15.588;2024-02-15T17:15:14;41.50;;;22.90;;
73107;SDS011;61559;50.476;15.588;2024-02-15T17:17:45;40.50;;;20.90;;
73107;SDS011;61559;50.476;15.588;2024-02-15T17:20:18;40.60;;;21.30;;
73107;SDS011;61559;50.476;15.588;2024-02-15T17:22:51;40.80;;;20.70;;
73107;SDS011;61559;50.476;15.588;2024-02-15T17:25:25;39.50;;;20.60;;
73107;SDS011;61559;50.476;15.588;2024-02-15T17:27:56;44.80;;;25.20;;
73107;SDS011;61559;50.476;15.588;2024-02-15T17:30:28;51.40;;;28.10;;
73107;SDS011;61559;50.476;15.588;2024-02-15T17:32:59;43.40;;;21.50;;
73107;SDS011;61559;50.476;15.588;2024-02-15T17:35:35;36.90;;;20.50;;
73107;SDS011;61559;50.476;15.588;2024-02-15T17:38:06;42.90;;;23.90;;
73107;SDS011;61559;50.476;15.588;2024-02-15T17:40:39;86.50;;;45.00;;
73107;SDS011;61559;50.476;15.588;2024-02-15T17:43:11;68.60;;;35.40;;
73107;SDS011;61559;50.476;15.588;2024-02-15T17:45:43;50.20;;;28.90;;
73107;SDS011;61559;50.476;15.588;2024-02-15T17:48:15;67.00;;;37.90;;
73107;SDS011;61559;50.476;15.588;2024-02-15T17:50:48;40.80;;;21.00;;
73107;SDS011;61559;50.476;15.588;2024-02-15T17:53:20;36.90;;;20.30;;
73107;SDS011;61559;50.476;15.588;2024-02-15T17:55:52;39.10;;;21.00;;
73107;SDS011;61559;50.476;15.588;2024-02-15T17:58:28;41.70;;;20.90;;
73107;SDS011;61559;50.476;15.588;2024-02-15T18:00:59;37.00;;;19.30;;
73107;SDS011;61559;50.476;15.588;2024-02-15T18:03:33;45.60;;;22.00;;
73107;SDS011;61559;50.476;15.588;2024-02-15T18:06:05;36.60;;;20.00;;
73107;SDS011;61559;50.476;15.588;2024-02-15T18:08:38;68.60;;;36.60;;
73107;SDS011;61559;50.476;15.588;2024-02-15T18:11:09;49.70;;;25.90;;
73107;SDS011;61559;50.476;15.588;2024-02-15T18:13:40;40.90;;;22.80;;
73107;SDS011;61559;50.476;15.588;2024-02-15T18:16:12;42.90;;;22.00;;
73107;SDS011;61559;50.476;15.588;2024-02-15T18:18:45;40.30;;;22.00;;
73107;SDS011;61559;50.476;15.588;2024-02-15T18:21:17;35.50;;;19.50;;
73107;SDS011;61559;50.476;15.588;2024-02-15T18:23:49;31.60;;;16.50;;
73107;SDS011;61559;50.476;15.588;2024-02-15T18:26:20;30.30;;;16.40;;
73107;SDS011;61559;50.476;15.588;2024-02-15T18:28:51;35.30;;;17.70;;
73107;SDS011;61559;50.476;15.588;2024-02-15T18:33:53;29.10;;;16.00;;
73107;SDS011;61559;50.476;15.588;2024-02-15T18:36:24;36.70;;;19.00;;
73107;SDS011;61559;50.476;15.588;2024-02-15T18:38:56;40.60;;;20.10;;
73107;SDS011;61559;50.476;15.588;2024-02-15T18:41:29;36.50;;;19.30;;
73107;SDS011;61559;50.476;15.588;2024-02-15T18:44:00;38.50;;;21.50;;
73107;SDS011;61559;50.476;15.588;2024-02-15T18:46:32;38.60;;;20.70;;
73107;SDS011;61559;50.476;15.588;2024-02-15T18:49:08;32.80;;;17.50;;
73107;SDS011;61559;50.476;15.588;2024-02-15T18:51:58;31.20;;;16.20;;
73107;SDS011;61559;50.476;15.588;2024-02-15T18:54:30;31.00;;;15.70;;
73107;SDS011;61559;50.476;15.588;2024-02-15T18:57:01;34.30;;;17.00;;
73107;SDS011;61559;50.476;15.588;2024-02-15T18:59:33;30.80;;;17.50;;
73107;SDS011;61559;50.476;15.588;2024-02-15T19:02:05;40.40;;;21.90;;
73107;SDS011;61559;50.476;15.588;2024-02-15T19:04:38;44.50;;;23.60;;
73107;SDS011;61559;50.476;15.588;2024-02-15T19:07:10;48.00;;;26.70;;
73107;SDS011;61559;50.476;15.588;2024-02-15T19:09:41;47.60;;;24.10;;
73107;SDS011;61559;50.476;15.588;2024-02-15T19:12:13;48.20;;;24.10;;
73107;SDS011;61559;50.476;15.588;2024-02-15T19:14:44;39.30;;;21.30;;
73107;SDS011;61559;50.476;15.588;2024-02-15T19:17:16;42.50;;;21.80;;
73107;SDS011;61559;50.476;15.588;2024-02-15T19:19:48;37.20;;;21.20;;
73107;SDS011;61559;50.476;15.588;2024-02-15T19:22:19;43.60;;;22.70;;
73107;SDS011;61559;50.476;15.588;2024-02-15T19:24:52;39.80;;;21.10;;
73107;SDS011;61559;50.476;15.588;2024-02-15T19:27:24;39.10;;;19.60;;
73107;SDS011;61559;50.476;15.588;2024-02-15T19:29:55;43.10;;;22.60;;
73107;SDS011;61559;50.476;15.588;2024-02-15T19:32:26;40.20;;;21.50;;
73107;SDS011;61559;50.476;15.588;2024-02-15T19:35:00;40.00;;;20.60;;
73107;SDS011;61559;50.476;15.588;2024-02-15T19:37:32;38.10;;;19.10;;
73107;SDS011;61559;50.476;15.588;2024-02-15T19:40:04;33.30;;;16.50;;
73107;SDS011;61559;50.476;15.588;2024-02-15T19:42:40;32.60;;;15.10;;
73107;SDS011;61559;50.476;15.588;2024-02-15T19:45:11;32.10;;;15.30;;
73107;SDS011;61559;50.476;15.588;2024-02-15T19:47:46;29.80;;;14.50;;
73107;SDS011;61559;50.476;15.588;2024-02-15T19:50:19;31.30;;;16.50;;
73107;SDS011;61559;50.476;15.588;2024-02-15T19:52:55;32.50;;;15.60;;
73107;SDS011;61559;50.476;15.588;2024-02-15T19:55:30;28.10;;;15.90;;
73107;SDS011;61559;50.476;15.588;2024-02-15T19:58:02;29.50;;;15.80;;
73107;SDS011;61559;50.476;15.588;2024-02-15T20:00:33;38.60;;;17.20;;
73107;SDS011;61559;50.476;15.588;2024-02-15T20:03:05;29.90;;;15.20;;
73107;SDS011;61559;50.476;15.588;2024-02-15T20:05:37;39.70;;;16.10;;
73107;SDS011;61559;50.476;15.588;2024-02-15T20:08:08;37.90;;;13.90;;
73107;SDS011;61559;50.476;15.588;2024-02-15T20:13:09;33.80;;;13.10;;
73107;SDS011;61559;50.476;15.588;2024-02-15T20:15:40;35.50;;;15.20;;
73107;SDS011;61559;50.476;15.588;2024-02-15T20:18:12;35.40;;;15.10;;
73107;SDS011;61559;50.476;15.588;2024-02-15T20:20:44;44.40;;;16.90;;
73107;SDS011;61559;50.476;15.588;2024-02-15T20:23:17;36.70;;;16.70;;
73107;SDS011;61559;50.476;15.588;2024-02-15T20:25:48;37.90;;;16.10;;
73107;SDS011;61559;50.476;15.588;2024-02-15T20:28:19;40.10;;;16.00;;
73107;SDS011;61559;50.476;15.588;2024-02-15T20:30:51;40.70;;;15.90;;
73107;SDS011;61559;50.476;15.588;2024-02-15T20:33:25;41.30;;;18.20;;
73107;SDS011;61559;50.476;15.588;2024-02-15T20:35:57;46.00;;;21.20;;
73107;SDS011;61559;50.476;15.588;2024-02-15T20:38:29;44.70;;;20.70;;
73107;SDS011;61559;50.476;15.588;2024-02-15T20:41:00;42.30;;;19.40;;
73107;SDS011;61559;50.476;15.588;2024-02-15T20:43:34;42.10;;;17.80;;
73107;SDS011;61559;50.476;15.588;2024-02-15T20:48:38;42.60;;;16.50;;
73107;SDS011;61559;50.476;15.588;2024-02-15T20:51:09;41.50;;;17.90;;
73107;SDS011;61559;50.476;15.588;2024-02-15T20:53:41;42.60;;;17.90;;
73107;SDS011;61559;50.476;15.588;2024-02-15T20:56:13;41.70;;;18.10;;
73107;SDS011;61559;50.476;15.588;2024-02-15T20:58:45;43.40;;;20.40;;
73107;SDS011;61559;50.476;15.588;2024-02-15T21:01:17;41.70;;;19.90;;
73107;SDS011;61559;50.476;15.588;2024-02-15T21:03:50;37.80;;;17.20;;
73107;SDS011;61559;50.476;15.588;2024-02-15T21:06:23;35.80;;;16.90;;
73107;SDS011;61559;50.476;15.588;2024-02-15T21:08:58;36.40;;;16.00;;
73107;SDS011;61559;50.476;15.588;2024-02-15T21:11:30;36.70;;;17.10;;
73107;SDS011;61559;50.476;15.588;2024-02-15T21:14:01;35.40;;;17.20;;
73107;SDS011;61559;50.476;15.588;2024-02-15T21:16:33;34.70;;;15.60;;
73107;SDS011;61559;50.476;15.588;2024-02-15T21:19:05;38.20;;;16.80;;
73107;SDS011;61559;50.476;15.588;2024-02-15T21:21:39;31.10;;;15.10;;
73107;SDS011;61559;50.476;15.588;2024-02-15T21:24:14;30.80;;;15.40;;
73107;SDS011;61559;50.476;15.588;2024-02-15T21:26:46;36.00;;;15.40;;
73107;SDS011;61559;50.476;15.588;2024-02-15T21:29:18;34.80;;;16.70;;
73107;SDS011;61559;50.476;15.588;2024-02-15T21:31:49;30.20;;;14.00;;
73107;SDS011;61559;50.476;15.588;2024-02-15T21:34:20;31.80;;;13.80;;
73107;SDS011;61559;50.476;15.588;2024-02-15T21:36:53;31.40;;;13.80;;
73107;SDS011;61559;50.476;15.588;2024-02-15T21:39:25;31.90;;;14.80;;
73107;SDS011;61559;50.476;15.588;2024-02-15T21:42:02;28.10;;;12.90;;
73107;SDS011;61559;50.476;15.588;2024-02-15T21:44:34;31.40;;;12.90;;
73107;SDS011;61559;50.476;15.588;2024-02-15T21:47:06;22.50;;;11.50;;
73107;SDS011;61559;50.476;15.588;2024-02-15T21:49:38;32.10;;;13.60;;
73107;SDS011;61559;50.476;15.588;2024-02-15T21:52:11;36.50;;;16.40;;
73107;SDS011;61559;50.476;15.588;2024-02-15T21:54:43;37.40;;;16.10;;
73107;SDS011;61559;50.476;15.588;2024-02-15T21:57:14;35.50;;;16.60;;
73107;SDS011;61559;50.476;15.588;2024-02-15T21:59:46;32.10;;;14.20;;
73107;SDS011;61559;50.476;15.588;2024-02-15T22:02:17;43.50;;;19.10;;
73107;SDS011;61559;50.476;15.588;2024-02-15T22:04:48;49.40;;;25.00;;
73107;SDS011;61559;50.476;15.588;2024-02-15T22:07:21;38.50;;;18.10;;
73107;SDS011;61559;50.476;15.588;2024-02-15T22:09:52;39.40;;;16.90;;
73107;SDS011;61559;50.476;15.588;2024-02-15T22:12:23;35.70;;;16.00;;
73107;SDS011;61559;50.476;15.588;2024-02-15T22:14:54;38.10;;;15.70;;
73107;SDS011;61559;50.476;15.588;2024-02-15T22:17:30;38.80;;;16.20;;
73107;SDS011;61559;50.476;15.588;2024-02-15T22:20:02;37.40;;;15.30;;
73107;SDS011;61559;50.476;15.588;2024-02-15T22:22:41;30.60;;;14.80;;
73107;SDS011;61559;50.476;15.588;2024-02-15T22:25:13;31.60;;;13.80;;
73107;SDS011;61559;50.476;15.588;2024-02-15T22:27:44;33.90;;;15.00;;
73107;SDS011;61559;50.476;15.588;2024-02-15T22:30:16;32.10;;;15.30;;
73107;SDS011;61559;50.476;15.588;2024-02-15T22:32:47;33.30;;;14.70;;
73107;SDS011;61559;50.476;15.588;2024-02-15T22:35:19;32.30;;;14.50;;
73107;SDS011;61559;50.476;15.588;2024-02-15T22:37:50;30.30;;;15.20;;
73107;SDS011;61559;50.476;15.588;2024-02-15T22:40:22;41.00;;;18.00;;
73107;SDS011;61559;50.476;15.588;2024-02-15T22:42:53;30.10;;;15.20;;
73107;SDS011;61559;50.476;15.588;2024-02-15T22:45:25;34.10;;;15.60;;
73107;SDS011;61559;50.476;15.588;2024-02-15T22:47:57;33.00;;;18.10;;
73107;SDS011;61559;50.476;15.588;2024-02-15T22:50:29;32.20;;;15.70;;
73107;SDS011;61559;50.476;15.588;2024-02-15T22:53:01;34.70;;;16.80;;
73107;SDS011;61559;50.476;15.588;2024-02-15T22:55:33;27.70;;;14.50;;
73107;SDS011;61559;50.476;15.588;2024-02-15T22:58:04;28.00;;;14.50;;
73107;SDS011;61559;50.476;15.588;2024-02-15T23:00:36;30.60;;;14.50;;